Time;durP1;ratioP1;P1;durP2;ratioP2;P2;SDS_P1;SDS_P2;PMS_P1;PMS_P2;Temp;Humidity;BMP_temperature;BMP_pressure;BME280_temperature;BME280_humidity;BME280_pressure;Samples;Min_cycle;Max_cycle;Signal;HPM_P1;HPM_P2
2022/12/02 00:01:16;;;;;;;7.40;0.85;;;;;;;4.82;100.00;101046.81;7394551;19;20017;-64
2022/12/02 00:03:43;;;;;;;2.00;1.20;;;;;;;4.78;100.00;101052.38;7394450;19;20021;-63
2022/12/02 00:06:24;;;;;;;6.75;1.70;;;;;;;4.82;100.00;101049.59;7393201;19;20026;-64
2022/12/02 00:08:53;;;;;;;16.88;2.88;;;;;;;4.82;100.00;101046.81;7394379;19;20011;-64
2022/12/02 00:11:26;;;;;;;21.88;3.28;;;;;;;4.83;100.00;101034.63;7395944;19;20007;-64
2022/12/02 00:13:52;;;;;;;3.28;1.30;;;;;;;4.84;100.00;101033.41;7393730;19;20023;-64
2022/12/02 00:16:21;;;;;;;9.50;1.38;;;;;;;4.80;100.00;101036.22;7393979;19;20010;-64
2022/12/02 00:18:48;;;;;;;2.40;1.67;;;;;;;8.70;100.00;101025.41;7393872;19;20069;-63
2022/12/02 00:21:14;;;;;;;7.70;1.95;;;;;;;13.61;100.00;101012.69;7394354;19;20014;-64
2022/12/02 00:23:40;;;;;;;2.95;1.05;;;;;;;15.66;100.00;101003.34;7392890;19;21082;-64
2022/12/02 00:26:07;;;;;;;6.07;1.60;;;;;;;16.20;100.00;100999.97;7392443;19;20363;-64
2022/12/02 00:28:33;;;;;;;1.25;1.15;;;;;;;16.98;95.02;100999.06;7394925;19;20014;-63
2022/12/02 00:30:59;;;;;;;12.80;1.50;;;;;;;17.64;90.12;100999.13;7396784;19;20467;-64
2022/12/02 00:33:25;;;;;;;12.98;2.35;;;;;;;17.83;86.48;100993.91;7394082;19;20014;-64
2022/12/02 00:35:52;;;;;;;2.58;0.93;;;;;;;9.39;100.00;101012.06;7392707;19;20491;-63
2022/12/02 00:38:18;;;;;;;8.85;1.58;;;;;;;6.21;100.00;101018.00;7390993;19;20022;-63
2022/12/02 00:40:44;;;;;;;3.97;1.73;;;;;;;5.30;100.00;101017.19;7394364;19;20010;-63
2022/12/02 00:48:41;;;;;;;14.35;1.65;;;;;;;4.82;100.00;101027.50;7392342;19;20007;-63
2022/12/02 00:51:08;;;;;;;5.47;1.25;;;;;;;4.79;100.00;101026.34;7393808;19;20018;-63
2022/12/02 00:53:34;;;;;;;5.10;1.13;;;;;;;4.83;100.00;101027.09;7389754;19;20022;-63
2022/12/02 00:56:00;;;;;;;2.53;1.83;;;;;;;4.83;100.00;101023.56;7391760;19;20342;-63
2022/12/02 00:58:27;;;;;;;12.23;4.70;;;;;;;4.72;100.00;101022.88;7390708;19;20356;-64
2022/12/02 01:00:53;;;;;;;11.05;1.65;;;;;;;4.55;100.00;101025.38;7391999;19;20021;-63
2022/12/02 01:03:19;;;;;;;3.92;0.82;;;;;;;4.43;100.00;101017.59;7389732;19;20351;-63
2022/12/02 01:05:45;;;;;;;4.50;1.55;;;;;;;4.36;100.00;101020.38;7391276;19;20035;-63
2022/12/02 01:08:11;;;;;;;13.52;2.20;;;;;;;4.38;100.00;101015.25;7394409;19;20113;-63
2022/12/02 01:10:37;;;;;;;8.30;2.65;;;;;;;4.46;100.00;101014.00;7391174;19;20006;-63
2022/12/02 01:13:04;;;;;;;7.53;2.50;;;;;;;4.44;100.00;101019.13;7389855;19;20023;-63
2022/12/02 01:15:30;;;;;;;3.22;0.98;;;;;;;4.40;100.00;101001.84;7392058;19;20010;-64
2022/12/02 01:17:56;;;;;;;11.40;0.95;;;;;;;4.36;100.00;101008.56;7392168;19;20010;-63
2022/12/02 01:20:22;;;;;;;20.45;2.15;;;;;;;4.07;100.00;101002.47;7389529;19;20015;-63
2022/12/02 01:22:48;;;;;;;3.58;1.42;;;;;;;3.99;100.00;101006.44;7391528;19;20010;-63
2022/12/02 01:25:15;;;;;;;3.15;0.52;;;;;;;3.93;100.00;100999.81;7389281;19;20015;-63
2022/12/02 01:27:41;;;;;;;31.65;2.80;;;;;;;3.88;100.00;101004.97;7388933;19;20018;-63
2022/12/02 01:30:08;;;;;;;13.88;2.25;;;;;;;3.83;100.00;101008.91;7392009;19;20007;-63
2022/12/02 01:32:34;;;;;;;6.32;2.30;;;;;;;4.00;100.00;101005.28;7391341;19;20078;-63
2022/12/02 01:35:00;;;;;;;11.38;1.90;;;;;;;4.00;100.00;101002.53;7391367;19;20011;-63
2022/12/02 01:37:26;;;;;;;5.05;1.23;;;;;;;4.85;100.00;101004.63;7391738;19;20025;-63
2022/12/02 01:39:53;;;;;;;7.20;2.33;;;;;;;5.11;100.00;101001.22;7390958;19;20524;-63
2022/12/02 01:42:19;;;;;;;4.30;1.02;;;;;;;6.84;100.00;100994.81;7395652;19;20686;-63
2022/12/02 01:44:45;;;;;;;1.55;0.95;;;;;;;5.79;100.00;101001.97;7389404;19;20015;-63
2022/12/02 01:47:11;;;;;;;4.97;1.65;;;;;;;5.28;100.00;101000.25;7388179;19;20721;-63
2022/12/02 01:49:37;;;;;;;3.72;1.25;;;;;;;8.77;100.00;100983.53;7390309;19;20022;-63
2022/12/02 01:52:04;;;;;;;6.47;1.75;;;;;;;7.33;100.00;100987.59;7394845;19;20014;-63
2022/12/02 01:54:31;;;;;;;9.63;2.60;;;;;;;7.72;100.00;100977.69;7390354;19;20022;-63
2022/12/02 01:56:57;;;;;;;7.93;2.13;;;;;;;6.22;100.00;100986.38;7389869;19;20038;-63
2022/12/02 01:59:24;;;;;;;23.52;1.85;;;;;;;5.83;100.00;100991.63;7389655;19;20014;-63
2022/12/02 02:01:50;;;;;;;6.32;1.55;;;;;;;5.84;100.00;100994.03;7393523;19;20011;-64
2022/12/02 02:04:17;;;;;;;13.40;3.65;;;;;;;5.57;100.00;100995.94;7387733;19;20018;-63
2022/12/02 02:06:46;;;;;;;1.00;0.65;;;;;;;5.37;100.00;100990.25;7387524;19;20010;-63
2022/12/02 02:09:13;;;;;;;1.88;0.88;;;;;;;5.42;100.00;100990.97;7388665;19;20035;-63
2022/12/02 02:11:41;;;;;;;4.25;2.10;;;;;;;5.27;100.00;100995.91;7390134;19;20325;-63
2022/12/02 02:14:10;;;;;;;8.48;1.55;;;;;;;5.54;100.00;101004.28;7388867;19;20020;-63
2022/12/02 02:16:38;;;;;;;1.80;1.70;;;;;;;5.99;100.00;100994.63;7386303;19;20010;-63
2022/12/02 02:19:06;;;;;;;8.25;2.85;;;;;;;6.87;100.00;100990.44;7386861;19;20357;-63
2022/12/02 02:21:44;;;;;;;4.25;1.13;;;;;;;5.60;100.00;101006.16;7390557;19;20048;-63
2022/12/02 02:24:11;;;;;;;2.30;1.58;;;;;;;5.13;100.00;101007.09;7389006;19;20343;-63
2022/12/02 02:26:38;;;;;;;40.45;3.20;;;;;;;5.09;100.00;101009.13;7393859;19;20018;-63
2022/12/02 02:29:05;;;;;;;3.45;1.85;;;;;;;4.92;100.00;101010.06;7394868;19;20018;-63
2022/12/02 02:31:32;;;;;;;6.55;1.70;;;;;;;4.84;100.00;101009.34;7398227;19;20024;-63
2022/12/02 02:33:59;;;;;;;13.43;2.15;;;;;;;5.43;100.00;101015.44;7394404;19;20090;-63
2022/12/02 02:36:25;;;;;;;2.20;0.68;;;;;;;5.13;100.00;101007.09;7394522;19;20014;-63
2022/12/02 02:38:52;;;;;;;3.00;1.17;;;;;;;4.93;100.00;101006.13;7394576;19;20015;-63
2022/12/02 02:41:19;;;;;;;6.10;1.77;;;;;;;4.80;100.00;101007.81;7396474;19;20018;-63
2022/12/02 02:43:46;;;;;;;3.60;1.67;;;;;;;4.98;100.00;101008.44;7392537;19;20010;-63
2022/12/02 02:46:12;;;;;;;2.95;0.60;;;;;;;5.92;100.00;100998.25;7395099;19;20017;-63
2022/12/02 02:48:41;;;;;;;7.28;1.10;;;;;;;6.98;100.00;100985.50;7394575;19;20014;-63
2022/12/02 02:51:09;;;;;;;5.15;1.38;;;;;;;8.85;100.00;100990.50;7396449;19;20459;-63
2022/12/02 02:53:35;;;;;;;10.48;1.40;;;;;;;8.27;100.00;100994.31;7394604;19;20034;-63
2022/12/02 02:56:03;;;;;;;9.95;1.30;;;;;;;12.73;100.00;100985.72;7394858;19;20018;-64
2022/12/02 02:58:33;;;;;;;10.23;1.73;;;;;;;13.51;100.00;100981.09;7396201;19;20070;-63
2022/12/02 03:01:15;;;;;;;10.82;2.30;;;;;;;8.05;100.00;100999.53;7395442;19;20490;-63
2022/12/02 03:03:46;;;;;;;2.42;1.55;;;;;;;7.16;100.00;100993.47;7392931;19;20021;-63
2022/12/02 03:06:14;;;;;;;10.63;1.48;;;;;;;6.78;100.00;100988.22;7392198;19;20021;-63
2022/12/02 03:08:45;;;;;;;2.92;1.92;;;;;;;6.57;100.00;100991.34;7397107;19;20011;-63
2022/12/02 03:11:12;;;;;;;6.05;1.35;;;;;;;6.24;100.00;100983.22;7395353;19;20015;-63
2022/12/02 03:13:42;;;;;;;6.13;2.85;;;;;;;6.09;100.00;100983.41;7395149;19;20018;-63
2022/12/02 03:16:11;;;;;;;1.52;1.20;;;;;;;5.67;100.00;100981.22;7394980;19;20414;-63
2022/12/02 03:18:39;;;;;;;8.80;0.65;;;;;;;5.96;100.00;100981.63;7393971;19;20371;-63
2022/12/02 03:21:07;;;;;;;16.17;1.95;;;;;;;6.02;100.00;100977.97;7395674;19;20097;-63
2022/12/02 03:23:33;;;;;;;1.65;0.98;;;;;;;8.81;100.00;100970.38;7394199;19;20018;-63
2022/12/02 03:26:01;;;;;;;6.03;1.30;;;;;;;9.23;100.00;100971.19;7391235;19;20046;-63
2022/12/02 03:28:28;;;;;;;5.00;1.13;;;;;;;7.48;100.00;100968.69;7395433;19;20015;-63
2022/12/02 03:30:54;;;;;;;4.68;2.88;;;;;;;12.88;100.00;100950.34;7393599;19;20014;-63
2022/12/02 03:33:21;;;;;;;11.38;1.33;;;;;;;7.68;100.00;100952.03;7392987;19;20042;-63
2022/12/02 03:35:48;;;;;;;13.07;2.88;;;;;;;7.49;100.00;100951.63;7390222;19;20348;-63
2022/12/02 03:38:14;;;;;;;15.02;2.90;;;;;;;13.35;100.00;100936.69;7394487;19;20039;-63
2022/12/02 03:40:41;;;;;;;1.42;1.40;;;;;;;8.86;100.00;100947.59;7395780;19;20011;-63
2022/12/02 03:43:07;;;;;;;1.63;1.52;;;;;;;6.68;100.00;100939.38;7393586;19;20022;-63
2022/12/02 03:45:34;;;;;;;3.30;1.67;;;;;;;7.08;100.00;100925.56;7394801;19;20019;-63
2022/12/02 03:48:03;;;;;;;18.48;1.33;;;;;;;6.84;100.00;100927.63;7394817;19;20018;-63
2022/12/02 03:50:30;;;;;;;5.25;1.85;;;;;;;6.10;100.00;100939.94;7394101;19;20010;-63
2022/12/02 03:52:56;;;;;;;17.60;1.85;;;;;;;5.71;100.00;100948.78;7394541;19;20006;-63
2022/12/02 03:55:22;;;;;;;7.93;2.20;;;;;;;6.70;100.00;100936.16;7394193;19;20015;-63
2022/12/02 03:57:48;;;;;;;0.68;0.68;;;;;;;7.46;100.00;100935.84;7394023;19;20049;-63
2022/12/02 04:00:15;;;;;;;3.13;1.55;;;;;;;5.78;100.00;100940.38;7395603;19;20027;-64
2022/12/02 04:02:41;;;;;;;3.63;1.70;;;;;;;6.72;100.00;100939.28;7393278;19;20359;-63
2022/12/02 04:05:07;;;;;;;5.68;1.25;;;;;;;8.95;100.00;100930.28;7393061;19;20490;-63
2022/12/02 04:07:34;;;;;;;9.32;1.75;;;;;;;10.25;100.00;100922.84;7393673;19;20035;-63
2022/12/02 04:10:00;;;;;;;8.32;1.63;;;;;;;7.43;100.00;100931.16;7393123;19;20021;-63
2022/12/02 04:12:26;;;;;;;5.03;2.05;;;;;;;10.36;100.00;100918.50;7398237;19;20092;-64
2022/12/02 04:14:52;;;;;;;15.10;1.33;;;;;;;8.62;100.00;100926.81;7391524;19;20018;-63
2022/12/02 04:17:18;;;;;;;2.90;1.33;;;;;;;6.52;100.00;100916.34;7392466;19;20026;-64
2022/12/02 04:19:44;;;;;;;11.10;1.23;;;;;;;5.96;100.00;100909.75;7391410;19;20018;-63
2022/12/02 04:22:10;;;;;;;7.90;2.05;;;;;;;7.79;100.00;100905.44;7395006;19;20623;-63
2022/12/02 04:24:36;;;;;;;3.15;1.58;;;;;;;9.27;100.00;100915.53;7392559;19;20118;-63
2022/12/02 04:27:03;;;;;;;6.25;2.00;;;;;;;12.76;100.00;100912.13;7388840;19;20010;-64
2022/12/02 04:29:29;;;;;;;10.93;2.83;;;;;;;9.11;100.00;100924.69;7393224;19;20014;-63
2022/12/02 04:31:55;;;;;;;8.05;1.73;;;;;;;7.11;100.00;100936.56;7396769;19;20010;-64
2022/12/02 04:34:21;;;;;;;0.63;0.47;;;;;;;6.57;100.00;100936.00;7389784;19;20007;-64
2022/12/02 04:36:47;;;;;;;10.45;2.83;;;;;;;6.22;100.00;100939.34;7393163;19;20030;-64
2022/12/02 04:39:13;;;;;;;18.60;1.92;;;;;;;6.04;100.00;100936.84;7393453;19;20007;-63
2022/12/02 04:41:39;;;;;;;8.70;1.13;;;;;;;6.04;100.00;100939.63;7396267;19;20018;-64
2022/12/02 04:44:06;;;;;;;8.00;1.00;;;;;;;6.71;100.00;100941.28;7392907;19;20019;-64
2022/12/02 04:46:32;;;;;;;6.15;1.08;;;;;;;12.09;100.00;100926.88;7389265;19;20028;-64
2022/12/02 04:48:58;;;;;;;7.40;2.08;;;;;;;7.26;100.00;100937.06;7392422;19;20006;-64
2022/12/02 04:51:24;;;;;;;2.50;0.50;;;;;;;6.86;100.00;100930.75;7394100;19;20019;-64
2022/12/02 04:53:50;;;;;;;8.38;2.67;;;;;;;6.23;100.00;100937.38;7392968;19;20022;-64
2022/12/02 04:56:16;;;;;;;6.43;2.05;;;;;;;6.00;100.00;100941.66;7390677;19;20018;-64
2022/12/02 04:58:43;;;;;;;7.50;1.85;;;;;;;5.98;100.00;100929.44;7392553;19;20011;-64
2022/12/02 05:01:09;;;;;;;25.95;2.70;;;;;;;6.66;100.00;100927.94;7395499;19;20045;-64
2022/12/02 05:03:35;;;;;;;6.80;2.08;;;;;;;9.07;100.00;100930.34;7390254;19;20086;-64
2022/12/02 05:06:01;;;;;;;6.22;3.30;;;;;;;9.45;100.00;100926.91;7391016;19;20078;-63
2022/12/02 05:08:27;;;;;;;9.40;3.13;;;;;;;12.18;100.00;100924.13;7393549;19;20038;-64
2022/12/02 05:10:53;;;;;;;11.07;2.20;;;;;;;14.09;100.00;100919.22;7392988;19;20013;-64
2022/12/02 05:13:20;;;;;;;1.38;1.05;;;;;;;15.90;100.00;100919.75;7392034;19;20018;-64
2022/12/02 05:15:46;;;;;;;0.55;0.38;;;;;;;16.26;100.00;100921.34;7390856;19;20014;-64
2022/12/02 05:18:12;;;;;;;3.35;1.20;;;;;;;16.13;99.43;100918.88;7391219;19;20035;-63
2022/12/02 05:20:38;;;;;;;14.38;2.33;;;;;;;16.49;95.58;100918.38;7390259;19;20052;-63
2022/12/02 05:23:04;;;;;;;10.05;1.65;;;;;;;17.01;90.99;100915.72;7389702;19;20035;-64
2022/12/02 05:25:30;;;;;;;1.90;1.08;;;;;;;16.32;90.30;100920.19;7389593;19;20034;-64
2022/12/02 05:27:56;;;;;;;6.05;0.50;;;;;;;8.61;100.00;100936.38;7387404;19;20013;-63
2022/12/02 05:30:23;;;;;;;1.35;1.35;;;;;;;6.44;100.00;100925.94;7390209;19;20011;-63
2022/12/02 05:32:49;;;;;;;8.32;2.35;;;;;;;5.85;100.00;100929.25;7394685;19;20007;-63
2022/12/02 05:35:15;;;;;;;1.27;0.50;;;;;;;5.50;100.00;100929.69;7391331;19;20011;-64
2022/12/02 05:37:41;;;;;;;17.90;1.35;;;;;;;5.96;100.00;100929.88;7391512;19;20014;-64
2022/12/02 05:40:09;;;;;;;3.55;1.40;;;;;;;5.59;100.00;100927.22;7390659;19;20018;-64
2022/12/02 05:42:35;;;;;;;2.90;1.98;;;;;;;5.55;100.00;100932.00;7394491;19;20031;-63
2022/12/02 05:45:12;;;;;;;2.95;1.20;;;;;;;5.54;100.00;100924.94;7389903;19;20031;-63
2022/12/02 05:47:39;;;;;;;23.67;2.20;;;;;;;5.38;100.00;100927.50;7389334;19;20559;-63
2022/12/02 05:50:10;;;;;;;7.63;2.90;;;;;;;5.93;100.00;100919.66;7391012;19;20010;-64
2022/12/02 05:52:37;;;;;;;0.88;0.88;;;;;;;5.53;100.00;100917.84;7392054;19;20027;-64
2022/12/02 05:55:13;;;;;;;7.88;2.47;;;;;;;5.58;100.00;100914.63;7390428;19;20036;-64
2022/12/02 05:57:39;;;;;;;8.48;1.05;;;;;;;5.32;100.00;100910.63;7390804;19;20014;-63
2022/12/02 06:00:08;;;;;;;2.67;1.42;;;;;;;7.00;100.00;100911.06;7390057;19;20010;-63
2022/12/02 06:02:44;;;;;;;5.47;1.65;;;;;;;6.46;100.00;100912.47;7393972;19;20040;-63
2022/12/02 06:05:23;;;;;;;9.43;1.30;;;;;;;5.87;100.00;100910.25;7389615;19;20042;-63
2022/12/02 06:07:55;;;;;;;2.10;0.75;;;;;;;5.89;100.00;100905.09;7389735;19;20495;-63
2022/12/02 06:10:28;;;;;;;3.45;0.50;;;;;;;5.93;100.00;100908.59;7388485;19;20365;-63
2022/12/02 06:13:03;;;;;;;0.82;0.82;;;;;;;5.88;100.00;100905.53;7393604;19;20015;-63
2022/12/02 06:15:35;;;;;;;0.80;0.80;;;;;;;5.79;100.00;100903.25;7388637;19;20047;-63
2022/12/02 06:18:10;;;;;;;0.75;0.75;;;;;;;5.65;100.00;100908.97;7388915;19;21144;-63
2022/12/02 06:20:36;;;;;;;0.85;0.85;;;;;;;5.45;100.00;100908.09;7387932;19;20463;-63
2022/12/02 06:23:02;;;;;;;5.88;2.03;;;;;;;5.66;100.00;100905.03;7388267;19;20472;-63
2022/12/02 06:25:30;;;;;;;1.48;1.20;;;;;;;5.70;100.00;100897.47;7389620;19;20018;-63
2022/12/02 06:28:19;;;;;;;3.67;0.77;;;;;;;5.66;100.00;100899.50;7387727;19;20011;-63
2022/12/02 06:30:46;;;;;;;5.18;1.05;;;;;;;5.58;100.00;100895.28;7393052;19;20014;-63
2022/12/02 06:33:31;;;;;;;20.10;1.60;;;;;;;5.43;100.00;100902.19;7389013;19;20014;-63
2022/12/02 06:36:11;;;;;;;2.33;0.82;;;;;;;6.63;100.00;100894.78;7389531;19;20031;-64
2022/12/02 06:38:52;;;;;;;3.10;1.15;;;;;;;8.07;100.00;100897.25;7389276;19;20025;-63
2022/12/02 06:41:25;;;;;;;13.15;1.15;;;;;;;7.89;100.00;100891.31;7389783;19;20012;-64
2022/12/02 06:46:42;;;;;;;0.57;0.57;;;;;;;8.54;100.00;100900.44;7388758;19;20029;-64
2022/12/02 06:49:18;;;;;;;7.78;1.98;;;;;;;8.28;100.00;100899.53;7389079;19;20023;-63
2022/12/02 06:51:44;;;;;;;2.53;1.50;;;;;;;13.40;100.00;100887.72;7391151;19;20015;-63
2022/12/02 06:54:19;;;;;;;1.27;1.20;;;;;;;13.47;100.00;100890.94;7388241;19;20014;-63
2022/12/02 06:56:47;;;;;;;4.10;1.08;;;;;;;8.22;100.00;100903.22;7389127;19;20030;-64
2022/12/02 06:59:17;;;;;;;1.40;1.30;;;;;;;7.09;100.00;100899.44;7388823;19;20011;-63
2022/12/02 07:01:44;;;;;;;0.15;0.15;;;;;;;6.65;100.00;100903.44;7390758;19;20011;-63
2022/12/02 07:04:25;;;;;;;0.85;0.85;;;;;;;6.38;100.00;100911.03;7388007;19;20006;-63
2022/12/02 07:06:55;;;;;;;3.67;0.80;;;;;;;6.49;100.00;100908.88;7386684;19;20018;-63
2022/12/02 07:09:58;;;;;;;0.93;0.40;;;;;;;6.31;100.00;100913.91;7388406;19;20010;-61
2022/12/02 07:12:42;;;;;;;14.15;1.65;;;;;;;6.15;100.00;100922.88;7396873;19;20128;-64
2022/12/02 07:15:08;;;;;;;0.85;0.38;;;;;;;8.03;100.00;100917.97;7395554;19;20014;-63
2022/12/02 07:17:39;;;;;;;18.65;2.10;;;;;;;6.08;100.00;100918.25;7394597;19;20026;-63
2022/12/02 07:20:05;;;;;;;2.17;1.13;;;;;;;6.18;100.00;100921.25;7395041;19;20011;-63
2022/12/02 07:22:55;;;;;;;1.15;1.02;;;;;;;7.02;100.00;100925.28;7398710;19;20767;-63
2022/12/02 07:25:46;;;;;;;3.63;1.02;;;;;;;6.97;100.00;100923.00;7395196;19;20086;-63
2022/12/02 07:28:15;;;;;;;2.08;1.70;;;;;;;6.13;100.00;100928.81;7393488;19;20010;-63
2022/12/02 07:30:42;;;;;;;5.78;1.80;;;;;;;5.81;100.00;100934.03;7395142;19;20014;-63
2022/12/02 07:33:08;;;;;;;3.60;2.15;;;;;;;5.58;100.00;100942.25;7395735;19;20014;-63
2022/12/02 07:35:34;;;;;;;0.73;0.55;;;;;;;5.98;100.00;100938.53;7397253;19;20018;-63
2022/12/02 07:38:00;;;;;;;0.65;0.57;;;;;;;5.61;100.00;100941.41;7394473;19;20333;-63
2022/12/02 07:40:28;;;;;;;3.47;1.25;;;;;;;5.49;100.00;100946.72;7392774;19;20022;-62
2022/12/02 07:42:54;;;;;;;3.22;0.98;;;;;;;5.23;100.00;100948.22;7397648;19;20014;-61
2022/12/02 07:45:20;;;;;;;5.18;1.40;;;;;;;10.27;100.00;100940.66;7392077;19;20006;-62
2022/12/02 07:47:48;;;;;;;0.45;0.38;;;;;;;7.68;100.00;100946.50;7389528;19;20435;-62
2022/12/02 07:50:16;;;;;;;2.00;1.67;;;;;;;10.25;100.00;100951.47;7393460;19;20464;-62
2022/12/02 07:52:42;;;;;;;2.28;0.70;;;;;;;12.96;100.00;100934.81;7397272;19;20015;-61
2022/12/02 08:13:16;;;;;;;9.80;1.58;;;;;;;13.26;100.00;100947.88;7431648;19;20333;-91
2022/12/02 08:15:43;;;;;;;2.72;0.47;;;;;;;13.84;100.00;100941.25;7434326;19;20010;-92
2022/12/02 08:18:09;;;;;;;0.95;0.70;;;;;;;15.34;100.00;100937.66;7432007;19;20457;-91
2022/12/02 08:20:35;;;;;;;13.57;0.82;;;;;;;15.14;97.75;100957.94;7431034;19;20491;-91
2022/12/02 08:23:01;;;;;;;5.28;0.68;;;;;;;12.96;100.00;100951.59;7432147;19;20010;-91
2022/12/02 08:25:27;;;;;;;0.70;0.70;;;;;;;15.95;96.57;100952.81;7429721;19;20345;-93
2022/12/02 08:27:53;;;;;;;2.78;1.17;;;;;;;16.31;92.64;100949.53;7431076;19;20018;-93
2022/12/02 08:30:19;;;;;;;3.20;0.98;;;;;;;16.33;91.59;100955.44;7430820;19;20014;-92
2022/12/02 08:32:45;;;;;;;0.10;0.10;;;;;;;15.18;92.37;100952.91;7431132;19;20014;-91
2022/12/02 08:35:12;;;;;;;0.95;0.85;;;;;;;16.11;90.63;100949.50;7429236;19;20036;-92
2022/12/02 08:37:38;;;;;;;1.48;0.55;;;;;;;15.74;92.89;100948.38;7429854;19;20018;-92
2022/12/02 08:40:05;;;;;;;0.57;0.57;;;;;;;16.47;89.43;100949.00;7431327;19;20010;-92
2022/12/02 08:42:31;;;;;;;2.60;0.45;;;;;;;16.95;87.78;100952.25;7433020;19;20028;-92
2022/12/02 08:44:57;;;;;;;8.55;1.40;;;;;;;16.37;84.98;100955.25;7431010;19;20030;-92
2022/12/02 08:47:23;;;;;;;1.65;0.57;;;;;;;13.86;100.00;100958.34;7429966;19;20477;-89
2022/12/02 08:49:50;;;;;;;0.52;0.52;;;;;;;13.96;100.00;100957.06;7430174;19;20003;-91
2022/12/02 08:52:16;;;;;;;3.15;1.05;;;;;;;16.13;96.18;100952.59;7431176;19;20018;-91
2022/12/02 08:54:44;;;;;;;3.60;0.85;;;;;;;18.62;81.95;100946.88;7433737;19;20010;-91
2022/12/02 08:57:10;;;;;;;1.55;0.43;;;;;;;19.17;77.15;100951.97;7428145;19;20867;-92
2022/12/02 08:59:36;;;;;;;1.85;1.58;;;;;;;18.11;78.35;100956.25;7431441;19;20010;-92
2022/12/02 09:02:03;;;;;;;3.20;2.05;;;;;;;18.59;76.94;100958.38;7431961;19;20096;-91
2022/12/02 09:04:29;;;;;;;7.28;0.63;;;;;;;15.93;93.27;100956.09;7433558;19;20017;-93
2022/12/02 09:06:55;;;;;;;6.75;0.93;;;;;;;16.97;86.13;100946.13;7428750;19;20023;-93
2022/12/02 09:09:21;;;;;;;1.45;0.77;;;;;;;9.33;100.00;100975.69;7430385;19;20473;-90
2022/12/02 09:11:47;;;;;;;16.65;1.23;;;;;;;7.37;100.00;100968.91;7430101;19;20021;-91
2022/12/02 09:14:13;;;;;;;8.50;0.80;;;;;;;6.81;100.00;100978.28;7429980;19;20025;-91
2022/12/02 09:16:39;;;;;;;4.75;1.05;;;;;;;7.40;100.00;100981.91;7426937;19;20484;-92
2022/12/02 09:19:05;;;;;;;1.40;1.13;;;;;;;10.95;100.00;100972.63;7430037;19;20111;-92
2022/12/02 09:21:31;;;;;;;1.75;1.10;;;;;;;14.91;100.00;100966.41;7431575;19;20022;-93
2022/12/02 09:23:58;;;;;;;0.30;0.10;;;;;;;9.79;100.00;100983.47;7406529;19;20018;-92
2022/12/02 09:26:24;;;;;;;3.67;1.95;;;;;;;9.16;100.00;100982.50;7400396;19;20469;-92
2022/12/02 09:28:50;;;;;;;5.95;0.80;;;;;;;14.39;100.00;100977.00;7398710;19;20011;-93
2022/12/02 09:31:16;;;;;;;7.85;1.52;;;;;;;16.79;94.51;100968.88;7401592;19;20006;-93
2022/12/02 09:33:42;;;;;;;5.25;1.95;;;;;;;17.17;89.06;100974.25;7401780;19;20026;-93
2022/12/02 09:36:08;;;;;;;7.72;1.10;;;;;;;16.40;90.72;100974.72;7398401;19;20023;-94
2022/12/02 09:38:35;;;;;;;5.88;0.77;;;;;;;17.53;85.54;100978.50;7401029;19;20018;-93
2022/12/02 09:41:01;;;;;;;0.70;0.70;;;;;;;17.97;82.85;100976.13;7400663;19;20018;-93
2022/12/02 09:43:28;;;;;;;0.63;0.63;;;;;;;17.95;81.54;100979.41;7404748;19;20109;-94
2022/12/02 09:45:54;;;;;;;1.17;1.08;;;;;;;18.23;80.94;100976.84;7396708;19;20674;-93
2022/12/02 09:48:21;;;;;;;4.78;0.95;;;;;;;18.65;79.01;100984.56;7401543;19;20011;-93
2022/12/02 09:50:47;;;;;;;1.52;1.42;;;;;;;18.23;79.59;100982.50;7399170;19;20015;-91
2022/12/02 09:53:17;;;;;;;4.20;0.73;;;;;;;17.27;82.47;100986.91;7393414;19;20373;-94
2022/12/02 09:55:43;;;;;;;1.42;0.68;;;;;;;17.98;80.84;100974.84;7395412;19;20018;-93
2022/12/02 09:58:19;;;;;;;2.72;1.45;;;;;;;16.50;83.96;100981.78;7396087;19;20015;-90
2022/12/02 10:00:45;;;;;;;1.10;1.00;;;;;;;16.63;85.37;100979.44;7395208;19;20491;-90
2022/12/02 10:03:15;;;;;;;15.00;1.92;;;;;;;16.86;84.62;100974.09;7392497;19;20011;-91
2022/12/02 10:05:44;;;;;;;5.28;0.38;;;;;;;17.04;83.80;100979.47;7392879;19;20042;-90
2022/12/02 10:08:16;;;;;;;0.52;0.52;;;;;;;16.85;84.23;100975.38;7396137;19;20018;-90
2022/12/02 10:10:43;;;;;;;1.45;0.95;;;;;;;17.15;83.67;100976.78;7393567;19;20464;-90
2022/12/02 10:13:19;;;;;;;5.85;1.45;;;;;;;14.48;88.39;100987.38;7394111;19;20023;-91
2022/12/02 10:15:46;;;;;;;2.05;0.55;;;;;;;17.39;85.86;100977.28;7392142;19;20423;-91
2022/12/02 10:18:21;;;;;;;5.10;1.23;;;;;;;18.03;81.20;100980.53;7392230;19;20029;-90
2022/12/02 10:20:49;;;;;;;4.35;1.20;;;;;;;18.08;80.64;100976.22;7393523;19;20018;-90
2022/12/02 10:23:23;;;;;;;3.15;2.05;;;;;;;18.17;79.29;100979.59;7392558;19;20025;-91
2022/12/02 10:25:57;;;;;;;2.20;0.85;;;;;;;18.56;78.39;100971.44;7392791;19;20432;-93
2022/12/02 10:28:27;;;;;;;2.85;0.93;;;;;;;18.57;77.40;100978.66;7393740;19;20117;-94
2022/12/02 10:31:00;;;;;;;0.47;0.47;;;;;;;19.33;75.51;100979.50;7394997;19;20018;-91
2022/12/02 10:33:28;;;;;;;4.88;0.88;;;;;;;19.18;75.42;100986.63;7393283;19;20624;-92
2022/12/02 10:35:55;;;;;;;3.75;1.17;;;;;;;18.93;76.25;100982.66;7389143;19;20049;-92
2022/12/02 10:38:28;;;;;;;9.35;2.05;;;;;;;17.53;80.42;100982.09;7394133;19;20022;-92
2022/12/02 10:41:14;;;;;;;1.42;1.08;;;;;;;18.98;76.91;100979.09;7393601;19;20042;-92
2022/12/02 10:43:41;;;;;;;2.75;1.13;;;;;;;18.19;76.28;100977.06;7394231;19;20042;-92
2022/12/02 10:46:13;;;;;;;2.20;1.92;;;;;;;17.89;79.48;100981.41;7392253;19;20021;-93
2022/12/02 10:48:40;;;;;;;1.42;1.20;;;;;;;16.82;81.43;100982.00;7392348;19;20026;-96
2022/12/02 10:51:13;;;;;;;1.42;0.55;;;;;;;17.14;82.94;100989.31;7393487;19;20022;-93
2022/12/02 10:53:40;;;;;;;12.02;1.52;;;;;;;17.13;82.69;100982.13;7391962;19;20038;-93
2022/12/02 10:56:07;;;;;;;12.00;1.33;;;;;;;17.30;83.22;100977.47;7390415;19;20018;-92
2022/12/02 10:58:33;;;;;;;8.35;1.00;;;;;;;17.33;83.34;100973.66;7390090;19;20480;-90
2022/12/02 11:01:00;;;;;;;2.67;1.02;;;;;;;17.41;83.38;100969.16;7392463;19;20018;-91
2022/12/02 11:03:27;;;;;;;2.10;1.73;;;;;;;17.15;84.06;100973.97;7391515;19;20358;-91
2022/12/02 11:05:53;;;;;;;4.32;1.00;;;;;;;16.37;87.19;100972.88;7389086;19;20018;-90
2022/12/02 11:08:27;;;;;;;9.43;1.45;;;;;;;16.91;88.06;100964.97;7393849;19;20018;-91
2022/12/02 11:11:24;;;;;;;1.48;1.00;;;;;;;16.79;88.56;100963.25;7392280;19;20038;-90
2022/12/02 11:14:03;;;;;;;1.58;0.63;;;;;;;17.35;86.44;100962.66;7395533;19;20062;-88
2022/12/02 11:16:32;;;;;;;4.78;1.40;;;;;;;17.02;86.28;100965.13;7389842;19;20026;-91
2022/12/02 11:19:07;;;;;;;6.97;1.58;;;;;;;16.78;86.13;100964.53;7390066;19;20021;-89
2022/12/02 11:21:39;;;;;;;1.52;0.90;;;;;;;16.65;89.26;100957.22;7391553;19;20027;-88
2022/12/02 11:24:25;;;;;;;10.15;1.30;;;;;;;17.75;85.48;100959.78;7390621;19;20046;-89
2022/12/02 11:27:03;;;;;;;7.07;2.00;;;;;;;17.14;90.32;100961.16;7388709;19;20022;-88
2022/12/02 11:29:41;;;;;;;1.83;1.17;;;;;;;17.74;86.62;100960.25;7391490;19;20018;-88
2022/12/02 11:32:26;;;;;;;8.68;2.55;;;;;;;18.07;86.05;100957.75;7390781;19;20048;-88
2022/12/02 11:34:55;;;;;;;7.32;1.83;;;;;;;18.61;82.85;100948.13;7392646;19;20249;-90
2022/12/02 11:37:33;;;;;;;4.00;1.35;;;;;;;18.70;82.71;100949.97;7405007;19;20011;-90
2022/12/02 11:40:06;;;;;;;8.45;2.05;;;;;;;18.87;82.30;100948.00;7406654;19;20014;-90
2022/12/02 11:42:39;;;;;;;2.42;1.90;;;;;;;18.88;83.40;100941.09;7398129;19;20010;-90
2022/12/02 11:45:14;;;;;;;3.63;1.85;;;;;;;18.82;82.20;100943.09;7390897;19;20015;-91
2022/12/02 11:48:01;;;;;;;3.67;1.58;;;;;;;18.42;82.37;100937.72;7388604;19;20022;-88
2022/12/02 11:50:37;;;;;;;3.83;1.73;;;;;;;19.11;79.47;100937.06;7389575;19;20010;-87
2022/12/02 11:53:18;;;;;;;1.75;1.33;;;;;;;19.57;77.98;100928.22;7389628;19;20062;-88
2022/12/02 11:55:46;;;;;;;4.53;1.92;;;;;;;19.05;78.34;100933.47;7388457;19;20026;-88